Observation data for Brownfield on 05/15/2018      Previous  Date  Next       Current Mesonet Observations  Soil Data  Daily Summary Page  Observations in Plain Language
KBWS 150500Z 16014KT 23/14 A2994 RMK A01 T02250142  RH  061%=      5-min Rain = 0
KBWS 150505Z 16013KT 22/14 A2994 RMK A01 T02230142  RH  061%=      5-min Rain = 0
KBWS 150510Z 16013KT 22/14 A2994 RMK A01 T02230142  RH  062%=      5-min Rain = 0
KBWS 150515Z 16013KT 22/14 A2995 RMK A01 T02220143  RH  062%=      5-min Rain = 0
KBWS 150520Z 16011KT 22/14 A2995 RMK A01 T02210144  RH  063%=      5-min Rain = 0
KBWS 150525Z 16012KT 22/15 A2995 RMK A01 T02200145  RH  063%=      5-min Rain = 0
KBWS 150530Z 16013KT 22/15 A2995 RMK A01 T02200148  RH  065%=      5-min Rain = 0
KBWS 150535Z 17013KT 22/15 A2995 RMK A01 T02200151  RH  066%=      5-min Rain = 0
KBWS 150540Z 17014KT 22/15 A2996 RMK A01 T02210154  RH  068%=      5-min Rain = 0
KBWS 150545Z 18014KT 22/16 A2996 RMK A01 T02210158  RH  069%=      5-min Rain = 0
KBWS 150550Z 18014KT 22/16 A2996 RMK A01 T02210160  RH  070%=      5-min Rain = 0
KBWS 150555Z 18013G18KT 22/16 A2996 RMK A01 T02210161  RH  070%=      5-min Rain = 0
KBWS 150600Z 18015KT 22/16 A2996 RMK A01 T02210162  RH  071%=      5-min Rain = 0
KBWS 150605Z 18016G22KT 22/16 A2996 RMK A01 T02200163  RH  072%=      5-min Rain = 0
KBWS 150610Z 18016G21KT 22/16 A2996 RMK A01 T02180164  RH  073%=      5-min Rain = 0
KBWS 150615Z 18016KT 22/17 A2996 RMK A01 T02170165  RH  074%=      5-min Rain = 0
KBWS 150620Z 18016KT 22/16 A2996 RMK A01 T02160164  RH  074%=      5-min Rain = 0
KBWS 150625Z 18017KT 22/16 A2996 RMK A01 T02150164  RH  075%=      5-min Rain = 0
KBWS 150630Z 18017KT 21/16 A2996 RMK A01 T02140164  RH  075%=      5-min Rain = 0
KBWS 150635Z 18016KT 21/16 A2996 RMK A01 T02130164  RH  075%=      5-min Rain = 0
KBWS 150640Z 18016KT 21/16 A2996 RMK A01 T02120163  RH  076%=      5-min Rain = 0
KBWS 150645Z 18015KT 21/16 A2996 RMK A01 T02110163  RH  076%=      5-min Rain = 0
KBWS 150650Z 17016G21KT 21/16 A2996 RMK A01 T02100163  RH  076%=      5-min Rain = 0
KBWS 150655Z 17015KT 21/16 A2996 RMK A01 T02080162  RH  077%=      5-min Rain = 0
KBWS 150700Z 17016KT 21/16 A2996 RMK A01 T02070163  RH  077%=      5-min Rain = 0
KBWS 150705Z 17017KT 21/16 A2996 RMK A01 T02070164  RH  078%=      5-min Rain = 0
KBWS 150710Z 17017KT 21/16 A2996 RMK A01 T02060164  RH  079%=      5-min Rain = 0
KBWS 150715Z 17018KT 21/16 A2996 RMK A01 T02050164  RH  079%=      5-min Rain = 0
KBWS 150720Z 18018KT 21/16 A2996 RMK A01 T02050164  RH  079%=      5-min Rain = 0
KBWS 150725Z 17019KT 20/16 A2996 RMK A01 T02040164  RH  080%=      5-min Rain = 0
KBWS 150730Z 17019G25KT 20/16 A2996 RMK A01 T02040163  RH  080%=      5-min Rain = 0
KBWS 150735Z 18019G24KT 20/16 A2996 RMK A01 T02030163  RH  080%=      5-min Rain = 0
KBWS 150740Z 18020KT 20/16 A2996 RMK A01 T02030163  RH  080%=      5-min Rain = 0
KBWS 150745Z 18020KT 20/16 A2995 RMK A01 T02030164  RH  080%=      5-min Rain = 0
KBWS 150750Z 18019KT 20/16 A2995 RMK A01 T02020164  RH  080%=      5-min Rain = 0
KBWS 150755Z 18021KT 20/16 A2995 RMK A01 T02030164  RH  081%=      5-min Rain = 0
KBWS 150800Z 18020G25KT 20/17 A2995 RMK A01 T02020165  RH  081%=      5-min Rain = 0
KBWS 150805Z 18020G26KT 20/17 A2995 RMK A01 T02030165  RH  081%=      5-min Rain = 0
KBWS 150810Z 18018G23KT 20/17 A2995 RMK A01 T02020165  RH  081%=      5-min Rain = 0
KBWS 150815Z 18018G23KT 20/17 A2995 RMK A01 T02010165  RH  082%=      5-min Rain = 0
KBWS 150820Z 18020KT 20/17 A2995 RMK A01 T02010165  RH  082%=      5-min Rain = 0
KBWS 150825Z 18017G22KT 20/17 A2996 RMK A01 T02000165  RH  082%=      5-min Rain = 0
KBWS 150830Z 18018KT 20/17 A2996 RMK A01 T02000165  RH  082%=      5-min Rain = 0
KBWS 150835Z 18017KT 20/17 A2996 RMK A01 T01990165  RH  083%=      5-min Rain = 0
KBWS 150840Z 19016KT 20/17 A2996 RMK A01 T01990166  RH  083%=      5-min Rain = 0
KBWS 150845Z 18017G22KT 20/17 A2996 RMK A01 T01980166  RH  084%=      5-min Rain = 0
KBWS 150850Z 18017KT 20/17 A2996 RMK A01 T01980167  RH  084%=      5-min Rain = 0
KBWS 150855Z 18017G22KT 20/17 A2996 RMK A01 T01980167  RH  084%=      5-min Rain = 0
KBWS 150900Z 18015G21KT 20/17 A2996 RMK A01 T01970167  RH  085%=      5-min Rain = 0
KBWS 150905Z 19018KT 20/17 A2995 RMK A01 T01970168  RH  085%=      5-min Rain = 0
KBWS 150910Z 19016G21KT 20/17 A2995 RMK A01 T01960168  RH  085%=      5-min Rain = 0
KBWS 150915Z 19016KT 20/17 A2995 RMK A01 T01950168  RH  086%=      5-min Rain = 0
KBWS 150920Z 19014KT 20/17 A2995 RMK A01 T01950167  RH  086%=      5-min Rain = 0
KBWS 150925Z 19014KT 19/17 A2995 RMK A01 T01940167  RH  086%=      5-min Rain = 0
KBWS 150930Z 19014KT 19/17 A2995 RMK A01 T01940167  RH  086%=      5-min Rain = 0
KBWS 150935Z 19014KT 19/17 A2996 RMK A01 T01930167  RH  087%=      5-min Rain = 0
KBWS 150940Z 19013KT 19/17 A2996 RMK A01 T01920167  RH  087%=      5-min Rain = 0
KBWS 150945Z 19013KT 19/17 A2996 RMK A01 T01920167  RH  088%=      5-min Rain = 0
KBWS 150950Z 19013KT 19/17 A2995 RMK A01 T01920168  RH  088%=      5-min Rain = 0
KBWS 150955Z 19012KT 19/17 A2996 RMK A01 T01920167  RH  088%=      5-min Rain = 0
KBWS 151000Z 19014KT 19/17 A2995 RMK A01 T01910168  RH  088%=      5-min Rain = 0
KBWS 151005Z 20014G19KT 19/17 A2995 RMK A01 T01920168  RH  088%=      5-min Rain = 0
KBWS 151010Z 20015KT 19/17 A2995 RMK A01 T01920168  RH  088%=      5-min Rain = 0
KBWS 151015Z 20015KT 19/17 A2995 RMK A01 T01920169  RH  089%=      5-min Rain = 0
KBWS 151020Z 20014KT 19/17 A2995 RMK A01 T01910169  RH  089%=      5-min Rain = 0
KBWS 151025Z 20013KT 19/17 A2995 RMK A01 T01910169  RH  089%=      5-min Rain = 0
KBWS 151030Z 20013KT 19/17 A2996 RMK A01 T01900169  RH  090%=      5-min Rain = 0
KBWS 151035Z 20013KT 19/17 A2996 RMK A01 T01900169  RH  090%=      5-min Rain = 0
KBWS 151040Z 21011KT 19/17 A2996 RMK A01 T01890169  RH  090%=      5-min Rain = 0
KBWS 151045Z 21011KT 19/17 A2996 RMK A01 T01890169  RH  090%=      5-min Rain = 0
KBWS 151050Z 21010KT 19/17 A2996 RMK A01 T01890169  RH  090%=      5-min Rain = 0
KBWS 151055Z 21010KT 19/17 A2996 RMK A01 T01890170  RH  091%=      5-min Rain = 0
KBWS 151100Z 21010KT 19/17 A2996 RMK A01 T01890170  RH  091%=      5-min Rain = 0
KBWS 151105Z 21010KT 19/17 A2996 RMK A01 T01890171  RH  091%=      5-min Rain = 0
KBWS 151110Z 21011KT 19/17 A2996 RMK A01 T01910172  RH  091%=      5-min Rain = 0
KBWS 151115Z 21010KT 19/17 A2996 RMK A01 T01910172  RH  091%=      5-min Rain = 0
KBWS 151120Z 21011KT 19/17 A2996 RMK A01 T01920172  RH  091%=      5-min Rain = 0
KBWS 151125Z 21010KT 19/17 A2996 RMK A01 T01910171  RH  091%=      5-min Rain = 0
KBWS 151130Z 21010KT 19/17 A2996 RMK A01 T01900171  RH  091%=      5-min Rain = 0
KBWS 151135Z 21010KT 19/17 A2996 RMK A01 T01900172  RH  091%=      5-min Rain = 0
KBWS 151140Z 21011KT 19/17 A2996 RMK A01 T01900172  RH  092%=      5-min Rain = 0
KBWS 151145Z 21010KT 19/17 A2996 RMK A01 T01900172  RH  092%=      5-min Rain = 0
KBWS 151150Z 21009KT 19/17 A2996 RMK A01 T01880171  RH  092%=      5-min Rain = 0
KBWS 151155Z 22010KT 19/17 A2997 RMK A01 T01890172  RH  092%=      5-min Rain = 0
KBWS 151200Z 22008KT 19/17 A2997 RMK A01 T01890172  RH  092%=      5-min Rain = 0
KBWS 151205Z 23008KT 19/17 A2997 RMK A01 T01880172  RH  092%=      5-min Rain = 0
KBWS 151210Z 23008KT 19/17 A2997 RMK A01 T01880172  RH  093%=      5-min Rain = 0
KBWS 151215Z 23007KT 19/17 A2998 RMK A01 T01900173  RH  093%=      5-min Rain = 0
KBWS 151220Z 22009KT 19/18 A2998 RMK A01 T01920175  RH  092%=      5-min Rain = 0
KBWS 151225Z 22011G16KT 20/18 A2998 RMK A01 T01950176  RH  091%=      5-min Rain = 0
KBWS 151230Z 22012G17KT 20/18 A2998 RMK A01 T01980178  RH  090%=      5-min Rain = 0
KBWS 151235Z 22014G20KT 20/18 A2998 RMK A01 T01990178  RH  090%=      5-min Rain = 0
KBWS 151240Z 22014G20KT 20/18 A2998 RMK A01 T02000178  RH  089%=      5-min Rain = 0
KBWS 151245Z 22016G21KT 20/18 A2998 RMK A01 T02010178  RH  088%=      5-min Rain = 0
KBWS 151250Z 22016KT 20/18 A2998 RMK A01 T02020177  RH  087%=      5-min Rain = 0
KBWS 151255Z 22014G19KT 20/18 A2999 RMK A01 T02030176  RH  087%=      5-min Rain = 0
KBWS 151300Z 22016KT 20/18 A2999 RMK A01 T02030175  RH  086%=      5-min Rain = 0
KBWS 151305Z 22013KT 21/18 A2999 RMK A01 T02050175  RH  085%=      5-min Rain = 0
KBWS 151310Z 23012KT 21/18 A2999 RMK A01 T02060175  RH  084%=      5-min Rain = 0
KBWS 151315Z 23012KT 21/18 A2999 RMK A01 T02080175  RH  084%=      5-min Rain = 0
KBWS 151320Z 23011KT 21/18 A2999 RMK A01 T02100175  RH  083%=      5-min Rain = 0
KBWS 151325Z 23013KT 21/18 A2999 RMK A01 T02110175  RH  082%=      5-min Rain = 0
KBWS 151330Z 23010KT 21/18 A2999 RMK A01 T02140176  RH  081%=      5-min Rain = 0
KBWS 151335Z 23014G19KT 22/18 A2999 RMK A01 T02160176  RH  080%=      5-min Rain = 0
KBWS 151340Z 24013KT 22/18 A2999 RMK A01 T02170176  RH  079%=      5-min Rain = 0
KBWS 151345Z 24013KT 22/18 A2999 RMK A01 T02190176  RH  078%=      5-min Rain = 0
KBWS 151350Z 24013G18KT 22/18 A2999 RMK A01 T02210175  RH  077%=      5-min Rain = 0
KBWS 151355Z 24015KT 22/17 A2999 RMK A01 T02230174  RH  076%=      5-min Rain = 0
KBWS 151400Z 23014KT 22/17 A2999 RMK A01 T02240174  RH  075%=      5-min Rain = 0
KBWS 151405Z 23014KT 23/17 A2999 RMK A01 T02260174  RH  074%=      5-min Rain = 0
KBWS 151410Z 24014KT 23/17 A2999 RMK A01 T02300172  RH  072%=      5-min Rain = 0
KBWS 151415Z 23014KT 23/17 A2999 RMK A01 T02330171  RH  070%=      5-min Rain = 0
KBWS 151420Z 24012G17KT 24/17 A2999 RMK A01 T02390172  RH  068%=      5-min Rain = 0
KBWS 151425Z 23015KT 24/17 A2999 RMK A01 T02390168  RH  066%=      5-min Rain = 0
KBWS 151430Z 24012KT 24/17 A2999 RMK A01 T02420170  RH  066%=      5-min Rain = 0
KBWS 151435Z 24014KT 24/17 A2999 RMK A01 T02430168  RH  064%=      5-min Rain = 0
KBWS 151440Z 23013KT 25/17 A2999 RMK A01 T02450168  RH  063%=      5-min Rain = 0
KBWS 151445Z 24014KT 25/16 A2999 RMK A01 T02500163  RH  060%=      5-min Rain = 0
KBWS 151450Z 24014KT 25/16 A2999 RMK A01 T02540160  RH  057%=      5-min Rain = 0
KBWS 151455Z 24014KT 26/16 A2999 RMK A01 T02550159  RH  057%=      5-min Rain = 0
KBWS 151500Z 24014KT 26/16 A2999 RMK A01 T02590159  RH  055%=      5-min Rain = 0
KBWS 151505Z 24013KT 26/16 A2999 RMK A01 T02620159  RH  054%=      5-min Rain = 0
KBWS 151510Z 24013KT 26/16 A2999 RMK A01 T02640158  RH  053%=      5-min Rain = 0
KBWS 151515Z 24012KT 27/16 A2999 RMK A01 T02680156  RH  051%=      5-min Rain = 0
KBWS 151520Z 24012KT 27/15 A2999 RMK A01 T02730153  RH  049%=      5-min Rain = 0
KBWS 151525Z 25012KT 28/15 A2999 RMK A01 T02800147  RH  045%=      5-min Rain = 0
KBWS 151530Z 25011KT 28/15 A2999 RMK A01 T02820145  RH  044%=      5-min Rain = 0
KBWS 151535Z 25012KT 29/14 A2999 RMK A01 T02850142  RH  042%=      5-min Rain = 0
KBWS 151540Z 25011KT 29/14 A2999 RMK A01 T02880138  RH  041%=      5-min Rain = 0
KBWS 151545Z 25010KT 29/14 A30 RMK A01 T02890138  RH  041%=      5-min Rain = 0
KBWS 151550Z 27010KT 30/13 A30 RMK A01 T02980133  RH  037%=      5-min Rain = 0
KBWS 151555Z 29013KT 30/13 A30 RMK A01 T03020129  RH  035%=      5-min Rain = 0
KBWS 151600Z 29010G16KT 30/13 A30 RMK A01 T03000129  RH  036%=      5-min Rain = 0
KBWS 151605Z 30013G19KT 30/13 A30 RMK A01 T03030127  RH  035%=      5-min Rain = 0
KBWS 151610Z 29014G20KT 30/12 A30 RMK A01 T03030120  RH  033%=      5-min Rain = 0
KBWS 151615Z 29011KT 30/13 A30 RMK A01 T03000126  RH  035%=      5-min Rain = 0
KBWS 151620Z 29012KT 30/12 A30 RMK A01 T03030121  RH  033%=      5-min Rain = 0
KBWS 151625Z 29012G17KT 31/11 A30 RMK A01 T03090110  RH  030%=      5-min Rain = 0
KBWS 151630Z 31014G19KT 31/10 A30 RMK A01 T03070098  RH  028%=      5-min Rain = 0
KBWS 151635Z 31011G16KT 31/09 A30 RMK A01 T03100093  RH  027%=      5-min Rain = 0
KBWS 151640Z 32013KT 31/10 A30 RMK A01 T03130099  RH  027%=      5-min Rain = 0
KBWS 151645Z 31011KT 31/09 A30 RMK A01 T03120090  RH  026%=      5-min Rain = 0
KBWS 151650Z 30012KT 32/08 A30 RMK A01 T03170080  RH  023%=      5-min Rain = 0
KBWS 151655Z 32010G16KT 32/08 A30 RMK A01 T03170082  RH  024%=      5-min Rain = 0
KBWS 151700Z 33010G16KT 32/07 A30 RMK A01 T03180073  RH  022%=      5-min Rain = 0
KBWS 151705Z 35010KT 32/07 A30 RMK A01 T03180072  RH  022%=      5-min Rain = 0
KBWS 151710Z 32010KT 32/07 A30 RMK A01 T03220067  RH  021%=      5-min Rain = 0
KBWS 151715Z 34008G16KT 32/07 A30 RMK A01 T03220069  RH  021%=      5-min Rain = 0
KBWS 151720Z 32011KT 32/06 A30 RMK A01 T03210061  RH  020%=      5-min Rain = 0
KBWS 151725Z 33011KT 32/06 A30 RMK A01 T03210056  RH  019%=      5-min Rain = 0
KBWS 151730Z 35011G16KT 32/07 A3001 RMK A01 T03210065  RH  021%=      5-min Rain = 0
KBWS 151735Z 36016KT 32/09 A30 RMK A01 T03210091  RH  025%=      5-min Rain = 0
KBWS 151740Z 36016KT 32/09 A3001 RMK A01 T03150094  RH  026%=      5-min Rain = 0
KBWS 151745Z 36013G18KT 31/09 A3001 RMK A01 T03120087  RH  025%=      5-min Rain = 0
KBWS 151750Z 35009G14KT 32/09 A3001 RMK A01 T03190086  RH  024%=      5-min Rain = 0
KBWS 151755Z 35011KT 32/08 A3001 RMK A01 T03180081  RH  023%=      5-min Rain = 0
KBWS 151800Z 36011G18KT 31/08 A3001 RMK A01 T03130076  RH  023%=      5-min Rain = 0
KBWS 151805Z 01011G17KT 32/08 A30 RMK A01 T03170078  RH  023%=      5-min Rain = 0
KBWS 151810Z 00010KT 32/07 A30 RMK A01 T03160072  RH  022%=      5-min Rain = 0
KBWS 151815Z 00011KT 32/07 A30 RMK A01 T03160069  RH  022%=      5-min Rain = 0
KBWS 151820Z 36010KT 32/07 A30 RMK A01 T03180065  RH  021%=      5-min Rain = 0
KBWS 151825Z 00009G14KT 32/06 A30 RMK A01 T03190063  RH  020%=      5-min Rain = 0
KBWS 151830Z 01007KT 32/06 A30 RMK A01 T03200061  RH  020%=      5-min Rain = 0
KBWS 151835Z 36007KT 32/06 A30 RMK A01 T03210055  RH  019%=      5-min Rain = 0
KBWS 151840Z 02007KT 32/05 A30 RMK A01 T03200053  RH  019%=      5-min Rain = 0
KBWS 151845Z 02008KT 32/05 A30 RMK A01 T03210051  RH  019%=      5-min Rain = 0
KBWS 151850Z 02007G12KT 32/05 A2999 RMK A01 T03210050  RH  018%=      5-min Rain = 0
KBWS 151855Z 34006KT 32/05 A2999 RMK A01 T03240048  RH  018%=      5-min Rain = 0
KBWS 151900Z 33005KT 33/04 A2999 RMK A01 T03260042  RH  017%=      5-min Rain = 0
KBWS 151905Z 02007G13KT 33/04 A2999 RMK A01 T03250042  RH  017%=      5-min Rain = 0
KBWS 151910Z 03007KT 33/04 A2999 RMK A01 T03250040  RH  017%=      5-min Rain = 0
KBWS 151915Z 02003KT 32/04 A2998 RMK A01 T03240038  RH  017%=      5-min Rain = 0
KBWS 151920Z 04003G9KT 33/04 A2998 RMK A01 T03260036  RH  016%=      5-min Rain = 0
KBWS 151925Z 00007G13KT 33/03 A2998 RMK A01 T03320032  RH  015%=      5-min Rain = 0
KBWS 151930Z 03005KT 33/03 A2998 RMK A01 T03290029  RH  015%=      5-min Rain = 0
KBWS 151935Z 05004KT 33/03 A2998 RMK A01 T03290029  RH  015%=      5-min Rain = 0
KBWS 151940Z 06004KT 33/03 A2997 RMK A01 T03310028  RH  015%=      5-min Rain = 0
KBWS 151945Z 04004KT 34/03 A2997 RMK A01 T03390031  RH  015%=      5-min Rain = 0
KBWS 151950Z 34009KT 34/03 A2997 RMK A01 T03380028  RH  014%=      5-min Rain = 0
KBWS 151955Z 32008KT 34/03 A2997 RMK A01 T03390025  RH  014%=      5-min Rain = 0
KBWS 152000Z 32007G12KT 34/02 A2996 RMK A01 T03370020  RH  014%=      5-min Rain = 0
KBWS 152005Z 33004KT 34/02 A2996 RMK A01 T03370019  RH  013%=      5-min Rain = 0
KBWS 152010Z 01003KT 34/02 A2996 RMK A01 T03380016  RH  013%=      5-min Rain = 0
KBWS 152015Z 07003KT 34/02 A2996 RMK A01 T03380016  RH  013%=      5-min Rain = 0
KBWS 152020Z 02003KT 34/02 A2996 RMK A01 T03410016  RH  013%=      5-min Rain = 0
KBWS 152025Z 06004KT 34/02 A2995 RMK A01 T03410017  RH  013%=      5-min Rain = 0
KBWS 152030Z 01006G11KT 34/02 A2995 RMK A01 T03430019  RH  013%=      5-min Rain = 0
KBWS 152035Z 35008G14KT 35/01 A2995 RMK A01 T03450014  RH  012%=      5-min Rain = 0
KBWS 152040Z 01007G12KT 34/01 A2995 RMK A01 T03440009  RH  012%=      5-min Rain = 0
KBWS 152045Z 35004KT 34/01 A2994 RMK A01 T03420005  RH  012%=      5-min Rain = 0
KBWS 152050Z 35006G12KT 34/01 A2994 RMK A01 T03390006  RH  012%=      5-min Rain = 0
KBWS 152055Z 02004KT 34/01 A2994 RMK A01 T03350005  RH  012%=      5-min Rain = 0
KBWS 152100Z 05003KT 33/01 A2994 RMK A01 T03340005  RH  012%=      5-min Rain = 0
KBWS 152105Z 14004KT 33/01 A2994 RMK A01 T03310005  RH  013%=      5-min Rain = 0
KBWS 152110Z 17005KT 33/00 A2994 RMK A01 T03290004  RH  013%=      5-min Rain = 0
KBWS 152115Z 20011G23KT 33/01 A2994 RMK A01 T03300007  RH  013%=      5-min Rain = 0
KBWS 152120Z 20022G35KT 32/01 A2993 RMK A01 T03180011  RH  014%=      5-min Rain = 0
KBWS 152125Z 19009G22KT 32/01 A2994 RMK A01 T03160009  RH  014%=      5-min Rain = 0
KBWS 152130Z 16018G25KT 32/03 A2993 RMK A01 T03150025  RH  016%=      5-min Rain = 0
KBWS 152135Z 17018G33KT 29/04 A2994 RMK A01 T02940040  RH  020%=      5-min Rain = 0
KBWS 152140Z 20023G41KT 28/06 A2994 RMK A01 T02790062  RH  026%=      5-min Rain = 0
KBWS 152145Z 21023G33KT 28/07 A2995 RMK A01 T02770071  RH  028%=      5-min Rain = 0
KBWS 152150Z 24031G46KT 28/07 A2996 RMK A01 T02760066  RH  027%=      5-min Rain = 0
KBWS 152155Z 22009G21KT 28/05 A2997 RMK A01 T02830050  RH  023%=      5-min Rain = 0
KBWS 152200Z 23003KT 30/06 A2996 RMK A01 T02980063  RH  023%=      5-min Rain = 0
KBWS 152205Z 02007G15KT 30/05 A2995 RMK A01 T03010052  RH  021%=      5-min Rain = 0
KBWS 152210Z 01016KT 30/06 A2994 RMK A01 T03020055  RH  021%=      5-min Rain = 0
KBWS 152215Z 01014G19KT 31/05 A2993 RMK A01 T03060047  RH  020%=      5-min Rain = 0
KBWS 152220Z 02013KT 31/04 A2992 RMK A01 T03110042  RH  019%=      5-min Rain = 0
KBWS 152225Z 03011G16KT 31/05 A2991 RMK A01 T03110046  RH  019%=      5-min Rain = 0
KBWS 152230Z 01007KT 31/05 A2991 RMK A01 T03080046  RH  019%=      5-min Rain = 0
KBWS 152235Z 03008KT 31/04 A2991 RMK A01 T03060044  RH  019%=      5-min Rain = 0
KBWS 152240Z 03007KT 31/04 A2991 RMK A01 T03060041  RH  019%=      5-min Rain = 0
KBWS 152245Z 01005KT 31/05 A2991 RMK A01 T03060045  RH  019%=      5-min Rain = 0
KBWS 152250Z 04004KT 31/05 A2991 RMK A01 T03080048  RH  020%=      5-min Rain = 0
KBWS 152255Z 05007G13KT 31/04 A2989 RMK A01 T03120041  RH  018%=      5-min Rain = 0
KBWS 152300Z 03007KT 32/03 A2989 RMK A01 T03160029  RH  016%=      5-min Rain = 0
KBWS 152305Z 34004KT 32/02 A2989 RMK A01 T03210023  RH  015%=      5-min Rain = 0
KBWS 152310Z 33005KT 32/03 A2989 RMK A01 T03230025  RH  015%=      5-min Rain = 0
KBWS 152315Z 03003KT 32/03 A2989 RMK A01 T03220028  RH  016%=      5-min Rain = 0
KBWS 152320Z 04003KT 32/03 A2989 RMK A01 T03220029  RH  016%=      5-min Rain = 0
KBWS 152325Z 04002KT 32/03 A2989 RMK A01 T03240026  RH  015%=      5-min Rain = 0
KBWS 152330Z 02003KT 33/02 A2989 RMK A01 T03260024  RH  015%=      5-min Rain = 0
KBWS 152335Z 35002KT 33/02 A2988 RMK A01 T03280024  RH  015%=      5-min Rain = 0
KBWS 152340Z 08003KT 33/02 A2988 RMK A01 T03270022  RH  015%=      5-min Rain = 0
KBWS 152345Z 14005KT 33/02 A2988 RMK A01 T03280023  RH  015%=      5-min Rain = 0
KBWS 152350Z 14005KT 33/02 A2988 RMK A01 T03290020  RH  014%=      5-min Rain = 0
KBWS 152355Z 16004KT 33/02 A2988 RMK A01 T03300017  RH  014%=      5-min Rain = 0
KBWS 160000Z 15005KT 33/02 A2988 RMK A01 T03300015  RH  014%=      5-min Rain = 0
KBWS 160005Z 10003G10KT 33/02 A2988 RMK A01 T03290022  RH  015%=      5-min Rain = 0
KBWS 160010Z 08012G18KT 32/09 A2988 RMK A01 T03150092  RH  026%=      5-min Rain = 0
KBWS 160015Z 10015KT 30/10 A2989 RMK A01 T03040104  RH  029%=      5-min Rain = 0
KBWS 160020Z 10015KT 30/11 A2989 RMK A01 T03020105  RH  030%=      5-min Rain = 0
KBWS 160025Z 10019G24KT 30/10 A2989 RMK A01 T02950103  RH  031%=      5-min Rain = 0
KBWS 160030Z 10018G24KT 29/10 A2989 RMK A01 T02910100  RH  031%=      5-min Rain = 0
KBWS 160035Z 10018G23KT 29/10 A299 RMK A01 T02900103  RH  032%=      5-min Rain = 0
KBWS 160040Z 10019G25KT 28/11 A299 RMK A01 T02820109  RH  035%=      5-min Rain = 0
KBWS 160045Z 10019G24KT 28/11 A299 RMK A01 T02790107  RH  035%=      5-min Rain = 0
KBWS 160050Z 10016G21KT 28/10 A299 RMK A01 T02770101  RH  034%=      5-min Rain = 0
KBWS 160055Z 10016G22KT 28/10 A2991 RMK A01 T02750095  RH  033%=      5-min Rain = 0
KBWS 160100Z 10017G23KT 27/09 A2991 RMK A01 T02730093  RH  033%=      5-min Rain = 0
KBWS 160105Z 11019G27KT 27/10 A2991 RMK A01 T02690096  RH  034%=      5-min Rain = 0
KBWS 160110Z 11018KT 27/10 A2991 RMK A01 T02670103  RH  036%=      5-min Rain = 0
KBWS 160115Z 12017G23KT 27/11 A2991 RMK A01 T02660111  RH  039%=      5-min Rain = 0
KBWS 160120Z 13018G24KT 26/13 A2992 RMK A01 T02620126  RH  044%=      5-min Rain = 0
KBWS 160125Z 13013G18KT 26/12 A2992 RMK A01 T02600123  RH  043%=      5-min Rain = 0
KBWS 160130Z 13014KT 26/12 A2992 RMK A01 T02600116  RH  041%=      5-min Rain = 0
KBWS 160135Z 13013G18KT 26/11 A2993 RMK A01 T02580114  RH  041%=      5-min Rain = 0
KBWS 160140Z 12016KT 26/11 A2993 RMK A01 T02560112  RH  041%=      5-min Rain = 0
KBWS 160145Z 11012KT 25/11 A2993 RMK A01 T02540113  RH  042%=      5-min Rain = 0
KBWS 160150Z 12013KT 25/11 A2994 RMK A01 T02530110  RH  041%=      5-min Rain = 0
KBWS 160155Z 12011KT 25/11 A2994 RMK A01 T02520108  RH  041%=      5-min Rain = 0
KBWS 160200Z 12011KT 25/11 A2994 RMK A01 T02500106  RH  041%=      5-min Rain = 0
KBWS 160205Z 11010KT 25/10 A2995 RMK A01 T02480101  RH  040%=      5-min Rain = 0
KBWS 160210Z 11011KT 25/10 A2995 RMK A01 T02480097  RH  039%=      5-min Rain = 0
KBWS 160215Z 11011KT 25/10 A2996 RMK A01 T02470095  RH  039%=      5-min Rain = 0
KBWS 160220Z 11011KT 25/09 A2996 RMK A01 T02450093  RH  039%=      5-min Rain = 0
KBWS 160225Z 10010KT 25/09 A2996 RMK A01 T02450091  RH  038%=      5-min Rain = 0
KBWS 160230Z 11010KT 24/09 A2996 RMK A01 T02430089  RH  038%=      5-min Rain = 0
KBWS 160235Z 11009KT 24/09 A2996 RMK A01 T02410088  RH  038%=      5-min Rain = 0
KBWS 160240Z 10008KT 24/09 A2996 RMK A01 T02400087  RH  038%=      5-min Rain = 0
KBWS 160245Z 09007KT 24/09 A2997 RMK A01 T02400086  RH  038%=      5-min Rain = 0
KBWS 160250Z 09007KT 24/09 A2997 RMK A01 T02370085  RH  038%=      5-min Rain = 0
KBWS 160255Z 09008KT 24/09 A2997 RMK A01 T02360085  RH  039%=      5-min Rain = 0
KBWS 160300Z 10008KT 23/08 A2997 RMK A01 T02340084  RH  039%=      5-min Rain = 0
KBWS 160305Z 10009KT 24/08 A2997 RMK A01 T02350084  RH  039%=      5-min Rain = 0
KBWS 160310Z 10011KT 24/08 A2998 RMK A01 T02360082  RH  038%=      5-min Rain = 0
KBWS 160315Z 11011KT 24/08 A2998 RMK A01 T02370082  RH  037%=      5-min Rain = 0
KBWS 160320Z 11010KT 24/08 A2998 RMK A01 T02360081  RH  038%=      5-min Rain = 0
KBWS 160325Z 11010KT 23/08 A2999 RMK A01 T02340081  RH  038%=      5-min Rain = 0
KBWS 160330Z 11010KT 23/08 A2999 RMK A01 T02330081  RH  038%=      5-min Rain = 0
KBWS 160335Z 12010KT 23/08 A2999 RMK A01 T02310081  RH  039%=      5-min Rain = 0
KBWS 160340Z 13011KT 23/08 A2999 RMK A01 T02290081  RH  039%=      5-min Rain = 0
KBWS 160345Z 13012KT 23/08 A2999 RMK A01 T02290082  RH  040%=      5-min Rain = 0
KBWS 160350Z 13012KT 23/08 A2999 RMK A01 T02280084  RH  040%=      5-min Rain = 0
KBWS 160355Z 13011KT 23/09 A30 RMK A01 T02270085  RH  041%=      5-min Rain = 0
KBWS 160400Z 12009KT 22/09 A30 RMK A01 T02240086  RH  042%=      5-min Rain = 0
KBWS 160405Z 12009KT 22/09 A30 RMK A01 T02220087  RH  043%=      5-min Rain = 0
KBWS 160410Z 11008KT 22/09 A30 RMK A01 T02210087  RH  043%=      5-min Rain = 0
KBWS 160415Z 08008KT 22/09 A3001 RMK A01 T02200089  RH  044%=      5-min Rain = 0
KBWS 160420Z 06010KT 22/09 A3001 RMK A01 T02210094  RH  045%=      5-min Rain = 0
KBWS 160425Z 06010KT 22/09 A3001 RMK A01 T02210092  RH  044%=      5-min Rain = 0
KBWS 160430Z 08009KT 22/09 A3001 RMK A01 T02200091  RH  044%=      5-min Rain = 0
KBWS 160435Z 09010G15KT 22/09 A3001 RMK A01 T02200092  RH  045%=      5-min Rain = 0
KBWS 160440Z 07012KT 22/10 A3001 RMK A01 T02210095  RH  046%=      5-min Rain = 0
KBWS 160445Z 06013KT 22/10 A3001 RMK A01 T02190102  RH  048%=      5-min Rain = 0
KBWS 160450Z 06012KT 22/11 A3001 RMK A01 T02170105  RH  050%=      5-min Rain = 0
KBWS 160455Z 06012KT 22/11 A3001 RMK A01 T02160105  RH  050%=      5-min Rain = 0

Page generated in 0.0244 seconds.